Time;durP1;ratioP1;P1;durP2;ratioP2;P2;SDS_P1;SDS_P2;PMS_P1;PMS_P2;Temp;Humidity;BMP_temperature;BMP_pressure;BME280_temperature;BME280_humidity;BME280_pressure;Samples;Min_cycle;Max_cycle;Signal;HPM_P1;HPM_P2
2023/03/05 00:02:15;;;;;;;18.07;7.67;;;;;;;;;;5021949;28;20202;-84
2023/03/05 00:04:42;;;;;;;14.47;7.63;;;;;;;;;;5024878;28;20261;-85
2023/03/05 00:07:11;;;;;;;15.10;8.37;;;;;;;;;;5027001;28;20205;-82
2023/03/05 00:09:37;;;;;;;16.47;7.80;;;;;;;;;;5024031;28;20188;-83
2023/03/05 00:12:06;;;;;;;16.10;7.73;;;;;;;;;;5028348;28;20193;-84
2023/03/05 00:14:32;;;;;;;13.17;7.27;;;;;;;;;;5030091;28;20198;-85
2023/03/05 00:16:59;;;;;;;17.60;8.57;;;;;;;;;;5031757;28;20190;-84
2023/03/05 00:19:25;;;;;;;19.47;9.30;;;;;;;;;;5044838;28;20192;-83
2023/03/05 00:21:52;;;;;;;22.47;9.47;;;;;;;;;;5023691;28;20211;-83
2023/03/05 00:24:19;;;;;;;16.03;8.87;;;;;;;;;;5023745;28;20188;-82
2023/03/05 00:26:45;;;;;;;15.00;8.73;;;;;;;;;;5026678;28;20249;-83
2023/03/05 00:29:14;;;;;;;18.90;9.43;;;;;;;;;;5048965;28;20182;-83
2023/03/05 00:31:40;;;;;;;15.83;8.10;;;;;;;;;;5025884;28;20195;-83
2023/03/05 00:34:07;;;;;;;16.47;8.70;;;;;;;;;;5025048;28;20253;-83
2023/03/05 00:36:34;;;;;;;17.87;9.10;;;;;;;;;;5021051;28;20188;-83
2023/03/05 00:39:00;;;;;;;19.40;9.00;;;;;;;;;;5027519;28;20179;-85
2023/03/05 00:41:26;;;;;;;18.57;9.30;;;;;;;;;;5025899;28;20177;-83
2023/03/05 00:43:53;;;;;;;19.60;9.43;;;;;;;;;;5026304;28;20298;-82
2023/03/05 00:46:19;;;;;;;20.07;9.00;;;;;;;;;;5020644;28;20190;-84
2023/03/05 00:48:45;;;;;;;21.23;10.63;;;;;;;;;;5025106;28;20191;-84
2023/03/05 00:51:11;;;;;;;19.50;9.33;;;;;;;;;;5026745;28;20207;-84
2023/03/05 00:53:38;;;;;;;23.50;10.57;;;;;;;;;;5027035;28;20187;-83
2023/03/05 00:56:05;;;;;;;26.93;11.03;;;;;;;;;;5024539;28;20239;-82
2023/03/05 00:58:32;;;;;;;19.90;8.87;;;;;;;;;;5026772;28;20220;-83
2023/03/05 01:01:00;;;;;;;21.80;9.50;;;;;;;;;;5026536;28;20693;-85
2023/03/05 01:03:27;;;;;;;21.13;9.83;;;;;;;;;;5016257;28;20574;-83
2023/03/05 01:05:53;;;;;;;14.13;8.70;;;;;;;;;;5018853;28;20194;-84
2023/03/05 01:08:41;;;;;;;23.33;9.50;;;;;;;;;;5025027;28;20242;-83
2023/03/05 01:11:07;;;;;;;22.37;9.77;;;;;;;;;;5018321;28;20230;-84
2023/03/05 01:13:34;;;;;;;26.10;10.57;;;;;;;;;;5021306;28;20246;-85
2023/03/05 01:16:00;;;;;;;20.43;10.10;;;;;;;;;;5025074;28;20235;-84
2023/03/05 01:18:26;;;;;;;22.03;9.53;;;;;;;;;;5031878;28;20203;-84
2023/03/05 01:20:52;;;;;;;21.67;9.90;;;;;;;;;;5048217;28;20187;-83
2023/03/05 01:23:20;;;;;;;18.40;10.10;;;;;;;;;;5035315;28;20211;-82
2023/03/05 01:25:53;;;;;;;21.60;9.83;;;;;;;;;;5024260;28;20174;-82
2023/03/05 01:28:19;;;;;;;20.70;9.77;;;;;;;;;;5022387;28;20648;-83
2023/03/05 01:30:45;;;;;;;21.47;9.73;;;;;;;;;;5026307;28;20731;-84
2023/03/05 01:33:11;;;;;;;20.50;8.90;;;;;;;;;;5011854;28;20181;-83
2023/03/05 01:35:38;;;;;;;21.43;9.30;;;;;;;;;;5029767;28;20595;-83
2023/03/05 01:38:04;;;;;;;15.63;9.23;;;;;;;;;;5024302;28;20660;-84
2023/03/05 01:40:31;;;;;;;20.40;9.40;;;;;;;;;;5024411;28;20773;-81
2023/03/05 01:43:08;;;;;;;17.53;8.90;;;;;;;;;;5020854;28;20198;-82
2023/03/05 01:45:35;;;;;;;19.13;10.03;;;;;;;;;;5025236;28;20268;-84
2023/03/05 01:48:01;;;;;;;15.23;8.37;;;;;;;;;;5025896;28;20193;-84
2023/03/05 01:50:27;;;;;;;19.37;9.00;;;;;;;;;;5029876;28;20192;-84
2023/03/05 01:53:04;;;;;;;18.93;9.30;;;;;;;;;;5030911;28;20596;-84
2023/03/05 01:55:31;;;;;;;17.60;8.83;;;;;;;;;;5027686;28;20184;-83
2023/03/05 01:58:07;;;;;;;15.70;8.30;;;;;;;;;;5028860;28;20188;-82
2023/03/05 02:00:35;;;;;;;15.17;9.03;;;;;;;;;;5038689;28;20227;-82
2023/03/05 02:03:02;;;;;;;16.63;8.73;;;;;;;;;;5050406;28;20191;-85
2023/03/05 02:05:29;;;;;;;16.97;7.97;;;;;;;;;;5019308;28;20656;-82
2023/03/05 02:07:56;;;;;;;17.53;8.83;;;;;;;;;;5021152;28;20188;-83
2023/03/05 02:10:24;;;;;;;18.40;8.80;;;;;;;;;;5021864;28;20175;-83
2023/03/05 02:12:51;;;;;;;19.37;8.80;;;;;;;;;;5028413;28;20230;-82
2023/03/05 02:15:17;;;;;;;18.33;7.97;;;;;;;;;;5027110;28;20180;-83
2023/03/05 02:17:43;;;;;;;18.73;8.50;;;;;;;;;;5030631;28;20272;-83
2023/03/05 02:20:14;;;;;;;17.40;8.90;;;;;;;;;;5028302;28;20190;-83
2023/03/05 02:22:40;;;;;;;16.73;7.67;;;;;;;;;;5043068;28;20201;-82
2023/03/05 02:25:33;;;;;;;20.13;8.80;;;;;;;;;;5046680;28;20269;-82
2023/03/05 02:28:02;;;;;;;16.67;7.93;;;;;;;;;;5025380;28;20207;-85
2023/03/05 02:30:30;;;;;;;15.13;8.20;;;;;;;;;;5027752;28;20185;-85
2023/03/05 02:32:56;;;;;;;17.80;8.53;;;;;;;;;;5023402;28;20654;-85
2023/03/05 02:35:22;;;;;;;15.00;8.03;;;;;;;;;;5026360;28;20218;-85
2023/03/05 02:37:49;;;;;;;15.53;8.20;;;;;;;;;;5030220;28;20279;-85
2023/03/05 02:40:16;;;;;;;17.20;9.10;;;;;;;;;;5029810;28;20247;-85
2023/03/05 02:42:42;;;;;;;22.03;9.47;;;;;;;;;;5018033;28;20210;-84
2023/03/05 02:45:08;;;;;;;15.87;8.53;;;;;;;;;;5020168;28;20188;-85
2023/03/05 02:47:36;;;;;;;15.40;8.13;;;;;;;;;;5023136;28;20913;-85
2023/03/05 02:50:05;;;;;;;16.83;8.80;;;;;;;;;;5026267;28;20719;-83
2023/03/05 02:52:31;;;;;;;14.53;7.80;;;;;;;;;;5026421;28;20267;-83
2023/03/05 02:54:57;;;;;;;16.33;8.40;;;;;;;;;;5029860;28;20195;-83
2023/03/05 02:57:24;;;;;;;19.23;8.00;;;;;;;;;;5029007;28;20182;-85
2023/03/05 02:59:50;;;;;;;15.57;7.80;;;;;;;;;;5027402;28;20180;-83
2023/03/05 03:02:16;;;;;;;19.23;7.87;;;;;;;;;;5028616;28;20217;-83
2023/03/05 03:04:44;;;;;;;19.83;8.00;;;;;;;;;;5028143;28;20195;-83
2023/03/05 03:07:12;;;;;;;18.17;8.53;;;;;;;;;;5016618;28;20268;-82
2023/03/05 03:09:38;;;;;;;14.90;8.20;;;;;;;;;;5027354;28;20551;-83
2023/03/05 03:12:05;;;;;;;17.87;8.37;;;;;;;;;;5028392;28;20182;-83
2023/03/05 03:14:38;;;;;;;17.83;8.67;;;;;;;;;;5027664;28;20236;-83
2023/03/05 03:17:08;;;;;;;16.30;7.87;;;;;;;;;;5030190;28;20178;-83
2023/03/05 03:19:36;;;;;;;14.23;8.33;;;;;;;;;;5018168;28;20282;-84
2023/03/05 03:22:06;;;;;;;15.47;7.50;;;;;;;;;;5030892;28;20218;-83
2023/03/05 03:24:32;;;;;;;15.57;8.13;;;;;;;;;;5033935;28;20266;-84
2023/03/05 03:26:59;;;;;;;12.87;7.17;;;;;;;;;;5034183;28;20227;-82
2023/03/05 03:29:25;;;;;;;18.83;8.67;;;;;;;;;;5027160;28;20260;-84
2023/03/05 03:31:51;;;;;;;16.97;7.57;;;;;;;;;;5021320;28;20663;-85
2023/03/05 03:34:17;;;;;;;12.77;7.30;;;;;;;;;;5038085;28;20221;-83
2023/03/05 03:36:44;;;;;;;15.57;8.37;;;;;;;;;;5050274;28;20179;-83
2023/03/05 03:39:13;;;;;;;16.17;7.93;;;;;;;;;;5047566;28;20772;-82
2023/03/05 03:41:43;;;;;;;19.33;8.47;;;;;;;;;;5063403;28;20310;-85
2023/03/05 03:44:10;;;;;;;15.67;7.97;;;;;;;;;;5044566;28;20194;-83
2023/03/05 03:46:37;;;;;;;19.20;8.53;;;;;;;;;;5061645;28;20558;-83
2023/03/05 03:49:03;;;;;;;21.97;7.90;;;;;;;;;;5064122;28;20631;-83
2023/03/05 03:51:30;;;;;;;16.93;8.07;;;;;;;;;;5067756;28;20178;-83
2023/03/05 03:53:56;;;;;;;15.33;8.23;;;;;;;;;;5052003;28;20653;-82
2023/03/05 03:56:23;;;;;;;16.83;8.37;;;;;;;;;;5048902;28;20244;-82
2023/03/05 03:58:51;;;;;;;16.53;8.40;;;;;;;;;;5049128;28;20193;-84
2023/03/05 04:01:17;;;;;;;17.60;8.07;;;;;;;;;;5049869;28;20189;-83
2023/03/05 04:03:43;;;;;;;19.87;7.80;;;;;;;;;;5042008;28;20886;-85
2023/03/05 04:06:09;;;;;;;15.07;8.27;;;;;;;;;;5051854;28;20181;-83
2023/03/05 04:08:35;;;;;;;16.57;8.73;;;;;;;;;;5043582;28;20235;-83
2023/03/05 04:11:01;;;;;;;16.97;8.73;;;;;;;;;;5056303;28;20188;-85
2023/03/05 04:13:27;;;;;;;20.37;7.87;;;;;;;;;;5053551;28;20216;-85
2023/03/05 04:15:54;;;;;;;17.23;8.43;;;;;;;;;;5044443;28;20201;-84
2023/03/05 04:18:21;;;;;;;16.63;8.03;;;;;;;;;;5050499;28;20197;-84
2023/03/05 04:20:47;;;;;;;18.97;8.57;;;;;;;;;;5049375;28;20188;-85
2023/03/05 04:23:14;;;;;;;20.20;8.67;;;;;;;;;;5055181;28;20627;-83
2023/03/05 04:25:41;;;;;;;18.07;7.67;;;;;;;;;;5051022;28;20247;-84
2023/03/05 04:28:07;;;;;;;17.27;7.43;;;;;;;;;;5053215;28;20204;-81
2023/03/05 04:30:34;;;;;;;17.10;8.70;;;;;;;;;;5039741;28;20522;-81
2023/03/05 04:33:13;;;;;;;14.30;8.13;;;;;;;;;;5062669;28;21040;-84
2023/03/05 04:35:39;;;;;;;18.93;8.30;;;;;;;;;;5064310;28;20218;-82
2023/03/05 04:38:05;;;;;;;17.67;8.40;;;;;;;;;;5046583;28;20186;-82
2023/03/05 04:40:32;;;;;;;17.23;8.40;;;;;;;;;;5060318;28;20192;-83
2023/03/05 04:42:58;;;;;;;16.90;8.60;;;;;;;;;;5061996;28;20213;-82
2023/03/05 04:45:24;;;;;;;14.87;7.87;;;;;;;;;;5050823;28;20180;-83
2023/03/05 04:47:50;;;;;;;16.67;8.10;;;;;;;;;;5048083;28;20187;-81
2023/03/05 04:50:16;;;;;;;14.57;7.50;;;;;;;;;;5044766;28;20330;-83
2023/03/05 04:52:44;;;;;;;15.80;7.73;;;;;;;;;;5061904;28;20667;-82
2023/03/05 04:55:11;;;;;;;16.07;8.30;;;;;;;;;;5063636;28;20188;-83
2023/03/05 04:57:38;;;;;;;16.90;8.30;;;;;;;;;;5047146;28;20765;-82
2023/03/05 05:00:06;;;;;;;16.03;7.63;;;;;;;;;;5065690;28;20193;-82
2023/03/05 05:02:34;;;;;;;16.57;7.77;;;;;;;;;;5048789;28;20721;-83
2023/03/05 05:05:00;;;;;;;13.87;6.87;;;;;;;;;;5063897;28;20276;-82
2023/03/05 05:07:28;;;;;;;13.97;6.63;;;;;;;;;;5054205;28;20178;-83
2023/03/05 05:09:54;;;;;;;15.77;7.17;;;;;;;;;;5047705;28;20579;-83
2023/03/05 05:12:20;;;;;;;14.67;7.73;;;;;;;;;;5059844;28;20199;-82
2023/03/05 05:14:47;;;;;;;15.47;6.13;;;;;;;;;;5047516;28;20334;-83
2023/03/05 05:17:14;;;;;;;14.27;6.70;;;;;;;;;;5047451;28;20272;-82
2023/03/05 05:19:40;;;;;;;13.47;6.97;;;;;;;;;;5050010;28;20271;-82
2023/03/05 05:22:06;;;;;;;13.30;7.07;;;;;;;;;;5050689;28;20684;-84
2023/03/05 05:24:32;;;;;;;11.43;6.80;;;;;;;;;;5059256;28;20178;-82
2023/03/05 05:26:58;;;;;;;11.97;5.67;;;;;;;;;;5053429;28;20637;-82
2023/03/05 05:29:24;;;;;;;11.27;6.47;;;;;;;;;;5056792;28;20636;-84
2023/03/05 05:31:52;;;;;;;15.90;7.13;;;;;;;;;;5053273;28;20191;-82
2023/03/05 05:34:19;;;;;;;14.57;6.30;;;;;;;;;;5067641;28;20224;-83
2023/03/05 05:36:45;;;;;;;12.97;6.27;;;;;;;;;;5052517;28;20239;-83
2023/03/05 05:39:13;;;;;;;10.50;5.83;;;;;;;;;;5052630;28;20645;-83
2023/03/05 05:41:41;;;;;;;11.00;6.30;;;;;;;;;;5067233;28;20179;-84
2023/03/05 05:44:07;;;;;;;12.13;7.23;;;;;;;;;;5053742;28;20704;-84
2023/03/05 05:46:34;;;;;;;12.63;6.03;;;;;;;;;;5054560;28;20254;-82
2023/03/05 05:49:00;;;;;;;11.13;6.53;;;;;;;;;;5054750;28;20264;-82
2023/03/05 05:51:27;;;;;;;12.47;6.30;;;;;;;;;;5055703;28;20695;-82
2023/03/05 05:53:53;;;;;;;12.47;5.40;;;;;;;;;;5043806;28;20202;-84
2023/03/05 05:56:19;;;;;;;11.07;6.37;;;;;;;;;;5063634;28;20179;-83
2023/03/05 05:58:47;;;;;;;11.20;5.67;;;;;;;;;;5068031;28;20331;-82
2023/03/05 06:01:20;;;;;;;12.87;5.67;;;;;;;;;;5049113;28;20192;-83
2023/03/05 06:03:46;;;;;;;13.33;6.37;;;;;;;;;;5053748;28;20242;-82
2023/03/05 06:06:13;;;;;;;11.63;5.83;;;;;;;;;;5056126;28;20199;-82
2023/03/05 06:08:40;;;;;;;10.90;5.83;;;;;;;;;;5053765;28;20193;-81
2023/03/05 06:11:12;;;;;;;10.70;6.00;;;;;;;;;;5065318;28;20260;-83
2023/03/05 06:13:41;;;;;;;10.13;5.50;;;;;;;;;;5054559;28;20186;-83
2023/03/05 06:16:10;;;;;;;11.87;5.83;;;;;;;;;;5053203;28;20204;-83
2023/03/05 06:18:36;;;;;;;9.70;5.33;;;;;;;;;;5065965;28;20177;-82
2023/03/05 06:21:03;;;;;;;13.00;6.73;;;;;;;;;;5069159;28;20516;-83
2023/03/05 06:23:30;;;;;;;9.77;5.60;;;;;;;;;;5068025;28;20225;-84
2023/03/05 06:26:01;;;;;;;14.47;6.47;;;;;;;;;;5053660;28;20205;-82
2023/03/05 06:28:28;;;;;;;12.17;6.40;;;;;;;;;;5053011;28;20205;-83
2023/03/05 06:31:05;;;;;;;11.97;6.17;;;;;;;;;;5049042;28;20178;-82
2023/03/05 06:33:31;;;;;;;15.07;6.17;;;;;;;;;;5065503;28;20383;-82
2023/03/05 06:36:06;;;;;;;11.40;5.87;;;;;;;;;;5070317;28;20756;-82
2023/03/05 06:38:34;;;;;;;11.47;5.83;;;;;;;;;;5050127;28;20177;-85
2023/03/05 06:41:00;;;;;;;10.73;6.23;;;;;;;;;;5052474;28;20192;-82
2023/03/05 06:43:26;;;;;;;12.27;6.73;;;;;;;;;;5054795;28;20215;-83
2023/03/05 06:46:03;;;;;;;12.10;6.57;;;;;;;;;;5058005;28;20260;-84
2023/03/05 06:48:30;;;;;;;11.50;6.63;;;;;;;;;;5061032;28;20519;-84
2023/03/05 06:50:56;;;;;;;13.80;6.70;;;;;;;;;;5074523;28;20196;-83
2023/03/05 06:53:23;;;;;;;17.27;7.00;;;;;;;;;;5064263;28;20721;-83
2023/03/05 06:55:49;;;;;;;10.47;6.13;;;;;;;;;;5050132;28;20224;-84
2023/03/05 06:58:16;;;;;;;11.10;5.97;;;;;;;;;;5044151;28;20179;-85
2023/03/05 07:00:43;;;;;;;11.67;5.80;;;;;;;;;;5051557;28;20597;-83
2023/03/05 07:03:09;;;;;;;11.87;6.03;;;;;;;;;;5052428;28;20616;-84
2023/03/05 07:05:39;;;;;;;11.23;5.97;;;;;;;;;;5051145;28;20710;-86
2023/03/05 07:08:24;;;;;;;11.27;5.80;;;;;;;;;;5053742;28;20283;-85
2023/03/05 07:10:50;;;;;;;13.37;6.23;;;;;;;;;;5055388;28;20283;-84
2023/03/05 07:13:16;;;;;;;14.97;6.93;;;;;;;;;;5041504;28;20187;-84
2023/03/05 07:15:42;;;;;;;11.50;6.70;;;;;;;;;;5062703;28;20183;-84
2023/03/05 07:18:08;;;;;;;13.17;6.20;;;;;;;;;;5043157;28;20181;-85
2023/03/05 07:20:35;;;;;;;12.47;5.53;;;;;;;;;;5051464;28;20709;-86
2023/03/05 07:23:02;;;;;;;11.70;5.97;;;;;;;;;;5048961;28;20209;-83
2023/03/05 07:25:30;;;;;;;11.17;5.77;;;;;;;;;;5051150;28;20200;-84
2023/03/05 07:27:56;;;;;;;9.03;5.03;;;;;;;;;;5055348;28;20179;-84
2023/03/05 07:30:23;;;;;;;9.37;5.83;;;;;;;;;;5047006;28;20188;-85
2023/03/05 07:32:49;;;;;;;11.07;5.80;;;;;;;;;;5045055;28;20196;-85
2023/03/05 07:35:15;;;;;;;10.37;5.90;;;;;;;;;;5087451;28;20229;-84
2023/03/05 07:37:41;;;;;;;10.60;5.77;;;;;;;;;;5075115;28;20595;-81
2023/03/05 07:40:09;;;;;;;11.43;6.40;;;;;;;;;;5052938;28;20645;-85
2023/03/05 07:42:36;;;;;;;10.00;6.10;;;;;;;;;;5053929;28;20212;-84
2023/03/05 07:45:02;;;;;;;10.67;5.87;;;;;;;;;;5051465;28;20222;-83
2023/03/05 07:47:29;;;;;;;9.97;6.47;;;;;;;;;;5069598;28;20187;-86
2023/03/05 07:49:56;;;;;;;12.97;7.23;;;;;;;;;;5066402;28;20212;-85
2023/03/05 07:52:22;;;;;;;12.33;6.87;;;;;;;;;;5034503;28;20185;-84
2023/03/05 07:54:49;;;;;;;14.17;7.33;;;;;;;;;;5071144;28;20730;-84
2023/03/05 07:57:15;;;;;;;11.90;7.37;;;;;;;;;;5051948;28;20541;-84
2023/03/05 07:59:42;;;;;;;14.27;7.50;;;;;;;;;;5049226;28;20277;-86
2023/03/05 08:02:10;;;;;;;13.80;7.57;;;;;;;;;;5041810;28;20684;-83
2023/03/05 08:04:37;;;;;;;14.87;7.20;;;;;;;;;;5044482;28;20185;-83
2023/03/05 08:07:04;;;;;;;16.27;7.80;;;;;;;;;;5052464;28;20179;-86
2023/03/05 08:09:31;;;;;;;12.87;7.70;;;;;;;;;;5049928;28;20675;-86
2023/03/05 08:11:57;;;;;;;10.17;6.70;;;;;;;;;;5051587;28;20188;-86
2023/03/05 08:14:23;;;;;;;10.87;6.97;;;;;;;;;;5049927;28;20196;-85
2023/03/05 08:16:51;;;;;;;14.53;7.93;;;;;;;;;;5067801;28;20653;-83
2023/03/05 08:19:18;;;;;;;14.80;7.93;;;;;;;;;;5069812;28;20175;-84
2023/03/05 08:21:46;;;;;;;12.67;7.37;;;;;;;;;;5044566;28;20655;-85
2023/03/05 08:24:14;;;;;;;13.80;8.10;;;;;;;;;;5060941;28;20241;-86
2023/03/05 08:26:40;;;;;;;13.97;7.70;;;;;;;;;;5051151;28;20185;-85
2023/03/05 08:29:08;;;;;;;13.87;8.23;;;;;;;;;;5049475;28;20976;-85
2023/03/05 08:31:34;;;;;;;14.23;8.03;;;;;;;;;;5051463;28;20176;-83
2023/03/05 08:34:01;;;;;;;13.80;7.70;;;;;;;;;;5052510;28;20220;-84
2023/03/05 08:36:27;;;;;;;15.67;7.90;;;;;;;;;;5069682;28;20184;-85
2023/03/05 08:38:54;;;;;;;15.43;8.80;;;;;;;;;;5066529;28;20210;-82
2023/03/05 08:41:21;;;;;;;13.23;8.33;;;;;;;;;;5053895;28;20180;-85
2023/03/05 08:43:47;;;;;;;19.00;9.17;;;;;;;;;;5045845;28;20244;-83
2023/03/05 08:46:13;;;;;;;15.60;9.00;;;;;;;;;;5082591;28;20195;-83
2023/03/05 08:48:40;;;;;;;14.73;8.47;;;;;;;;;;5047215;28;20187;-84
2023/03/05 08:51:07;;;;;;;15.97;8.47;;;;;;;;;;5046677;28;20188;-83
2023/03/05 08:53:33;;;;;;;15.27;9.40;;;;;;;;;;5048885;28;20189;-86
2023/03/05 08:55:59;;;;;;;16.73;9.13;;;;;;;;;;5050506;28;20185;-85
2023/03/05 08:58:28;;;;;;;16.20;8.50;;;;;;;;;;5073350;28;20183;-83
2023/03/05 09:00:55;;;;;;;16.20;9.17;;;;;;;;;;5048127;28;20186;-86
2023/03/05 09:03:21;;;;;;;14.40;8.47;;;;;;;;;;5047112;28;20207;-85
2023/03/05 09:05:47;;;;;;;17.47;8.77;;;;;;;;;;5049930;28;20217;-85
2023/03/05 09:08:13;;;;;;;15.77;8.30;;;;;;;;;;5050668;28;20660;-83
2023/03/05 09:10:41;;;;;;;16.37;8.90;;;;;;;;;;5038556;28;20234;-85
2023/03/05 09:13:08;;;;;;;13.33;8.23;;;;;;;;;;5069150;28;20187;-83
2023/03/05 09:15:34;;;;;;;14.20;8.40;;;;;;;;;;5049383;28;20641;-84
2023/03/05 09:18:01;;;;;;;15.60;8.47;;;;;;;;;;5047685;28;20318;-83
2023/03/05 09:20:27;;;;;;;19.37;9.57;;;;;;;;;;5046679;28;20203;-82
2023/03/05 09:22:53;;;;;;;19.07;8.97;;;;;;;;;;5047025;28;20570;-87
2023/03/05 09:25:20;;;;;;;15.67;9.37;;;;;;;;;;5046013;28;20177;-84
2023/03/05 09:27:46;;;;;;;15.93;8.23;;;;;;;;;;5037057;28;20189;-84
2023/03/05 09:30:12;;;;;;;14.23;8.50;;;;;;;;;;5056956;28;20276;-84
2023/03/05 09:32:38;;;;;;;15.47;9.20;;;;;;;;;;5060871;28;20525;-84
2023/03/05 09:35:05;;;;;;;15.97;8.83;;;;;;;;;;5022518;28;1113617;-82
2023/03/05 09:37:31;;;;;;;17.13;9.63;;;;;;;;;;5040326;28;20216;-85
2023/03/05 09:39:58;;;;;;;15.60;8.90;;;;;;;;;;5078588;28;20225;-83
2023/03/05 09:42:45;;;;;;;12.97;9.03;;;;;;;;;;5074463;28;20197;-82
2023/03/05 09:45:25;;;;;;;18.20;10.03;;;;;;;;;;5069958;28;20655;-86
2023/03/05 09:48:09;;;;;;;16.57;9.30;;;;;;;;;;5059540;28;20192;-83
2023/03/05 09:50:37;;;;;;;16.80;9.90;;;;;;;;;;5060403;28;20192;-84
2023/03/05 09:53:04;;;;;;;19.37;10.67;;;;;;;;;;5060994;28;20188;-84
2023/03/05 09:55:39;;;;;;;17.83;10.50;;;;;;;;;;5077452;28;20521;-83
2023/03/05 09:58:10;;;;;;;18.23;10.67;;;;;;;;;;5062875;28;20176;-86
2023/03/05 10:00:50;;;;;;;18.43;11.10;;;;;;;;;;5046361;28;20545;-83
2023/03/05 10:03:24;;;;;;;20.57;10.10;;;;;;;;;;5046552;28;20204;-83
2023/03/05 10:05:59;;;;;;;17.47;9.97;;;;;;;;;;5065553;28;20193;-83
2023/03/05 10:08:30;;;;;;;20.53;11.20;;;;;;;;;;5065586;28;20184;-82
2023/03/05 10:10:57;;;;;;;18.67;10.90;;;;;;;;;;5069124;28;20189;-83
2023/03/05 10:13:28;;;;;;;17.77;10.53;;;;;;;;;;5077326;28;20185;-83
2023/03/05 10:16:00;;;;;;;19.90;11.17;;;;;;;;;;5062356;28;20188;-83
2023/03/05 10:18:37;;;;;;;19.17;10.90;;;;;;;;;;5074235;28;20230;-83
2023/03/05 10:21:23;;;;;;;16.30;10.60;;;;;;;;;;5062611;28;20197;-84
2023/03/05 10:23:49;;;;;;;17.10;10.27;;;;;;;;;;5068889;28;20261;-84
2023/03/05 10:26:28;;;;;;;18.43;11.17;;;;;;;;;;5084126;28;20197;-82
2023/03/05 10:29:12;;;;;;;17.00;10.67;;;;;;;;;;5053957;28;20193;-83
2023/03/05 10:31:57;;;;;;;17.37;10.30;;;;;;;;;;5084182;28;20176;-83
2023/03/05 10:34:42;;;;;;;18.30;10.00;;;;;;;;;;5075221;28;20228;-83
2023/03/05 10:37:17;;;;;;;18.53;10.43;;;;;;;;;;5067507;28;20268;-83
2023/03/05 10:40:04;;;;;;;18.33;10.53;;;;;;;;;;5048845;28;20199;-82
2023/03/05 10:42:36;;;;;;;14.63;10.17;;;;;;;;;;5063192;28;20235;-82
2023/03/05 10:45:12;;;;;;;19.27;10.67;;;;;;;;;;5080168;28;20272;-83
2023/03/05 10:47:47;;;;;;;19.43;10.17;;;;;;;;;;5045317;28;20211;-82
2023/03/05 10:50:34;;;;;;;16.00;10.20;;;;;;;;;;5075782;28;20644;-83
2023/03/05 10:53:07;;;;;;;17.83;10.47;;;;;;;;;;5050787;28;20230;-83
2023/03/05 10:55:33;;;;;;;19.03;10.50;;;;;;;;;;5069945;28;20646;-83
2023/03/05 10:58:00;;;;;;;17.23;11.10;;;;;;;;;;5049807;28;20184;-83
2023/03/05 11:00:27;;;;;;;16.70;10.20;;;;;;;;;;5047519;28;20197;-83
2023/03/05 11:02:56;;;;;;;19.13;10.40;;;;;;;;;;5048217;28;20277;-83
2023/03/05 11:05:45;;;;;;;17.57;9.87;;;;;;;;;;5043518;28;20605;-81
2023/03/05 11:08:29;;;;;;;19.63;11.30;;;;;;;;;;5054146;28;20280;-83
2023/03/05 11:11:06;;;;;;;16.73;10.90;;;;;;;;;;5075025;28;20544;-82
2023/03/05 11:13:32;;;;;;;20.53;11.43;;;;;;;;;;5082599;28;20229;-82
2023/03/05 11:19:16;;;;;;;20.77;11.43;;;;;;;;;;5063846;28;20264;-83
2023/03/05 11:21:43;;;;;;;15.83;9.53;;;;;;;;;;5050636;28;20188;-83
2023/03/05 11:24:13;;;;;;;18.53;10.07;;;;;;;;;;5048677;28;20214;-84
2023/03/05 11:26:50;;;;;;;15.03;8.90;;;;;;;;;;5055510;28;20743;-84
2023/03/05 11:29:25;;;;;;;16.43;10.07;;;;;;;;;;5053640;28;20215;-84
2023/03/05 11:31:52;;;;;;;15.50;8.60;;;;;;;;;;5068079;28;20164;-85
2023/03/05 11:34:18;;;;;;;15.20;9.00;;;;;;;;;;5046509;28;20739;-84
2023/03/05 11:36:53;;;;;;;11.73;7.50;;;;;;;;;;5048894;28;20220;-83
2023/03/05 11:39:23;;;;;;;14.53;7.03;;;;;;;;;;5048871;28;20184;-83
2023/03/05 11:41:51;;;;;;;15.73;8.33;;;;;;;;;;5055105;28;20200;-83
2023/03/05 11:44:22;;;;;;;10.77;7.77;;;;;;;;;;5051769;28;20215;-83
2023/03/05 11:46:57;;;;;;;10.33;7.07;;;;;;;;;;5052051;28;20214;-83
2023/03/05 11:49:26;;;;;;;15.63;8.13;;;;;;;;;;5055042;28;20229;-84
2023/03/05 11:52:09;;;;;;;12.17;7.77;;;;;;;;;;5044844;28;20209;-83
2023/03/05 11:54:59;;;;;;;14.90;8.20;;;;;;;;;;5059833;28;20264;-84
2023/03/05 11:57:27;;;;;;;16.80;8.47;;;;;;;;;;5064295;28;20200;-84
2023/03/05 11:59:54;;;;;;;17.23;9.00;;;;;;;;;;5057639;28;20179;-83
2023/03/05 12:02:22;;;;;;;13.47;8.57;;;;;;;;;;5051851;28;20231;-84
2023/03/05 12:04:49;;;;;;;17.30;9.53;;;;;;;;;;5054323;28;20218;-84
2023/03/05 12:07:17;;;;;;;16.87;9.77;;;;;;;;;;5051437;28;20187;-83
2023/03/05 12:09:46;;;;;;;19.03;9.63;;;;;;;;;;5065316;28;20604;-84
2023/03/05 12:12:34;;;;;;;17.23;9.37;;;;;;;;;;5047835;28;20294;-83
2023/03/05 12:15:17;;;;;;;16.93;9.20;;;;;;;;;;5054406;28;20191;-84
2023/03/05 12:18:01;;;;;;;13.23;9.10;;;;;;;;;;5051014;28;20231;-84
2023/03/05 12:20:46;;;;;;;16.17;9.37;;;;;;;;;;5063309;28;20668;-83
2023/03/05 12:23:17;;;;;;;16.90;9.27;;;;;;;;;;5066385;28;20217;-84
2023/03/05 12:25:55;;;;;;;17.20;9.23;;;;;;;;;;5051472;28;20317;-84
2023/03/05 12:28:34;;;;;;;13.43;8.27;;;;;;;;;;5051195;28;20227;-84
2023/03/05 12:31:01;;;;;;;18.07;8.83;;;;;;;;;;5050030;28;20268;-84
2023/03/05 12:33:33;;;;;;;16.67;8.60;;;;;;;;;;5044604;28;20184;-84
2023/03/05 12:36:18;;;;;;;15.40;8.00;;;;;;;;;;5056515;28;20191;-83
2023/03/05 12:38:46;;;;;;;15.23;8.63;;;;;;;;;;5054718;28;20184;-84
2023/03/05 12:41:24;;;;;;;17.93;9.97;;;;;;;;;;5036520;28;20690;-84
2023/03/05 12:44:05;;;;;;;14.57;9.60;;;;;;;;;;5049624;28;20211;-83
2023/03/05 12:46:31;;;;;;;13.30;7.30;;;;;;;;;;5059494;28;20261;-84
2023/03/05 12:48:58;;;;;;;17.30;8.07;;;;;;;;;;5087753;28;20192;-82
2023/03/05 12:51:28;;;;;;;12.13;7.37;;;;;;;;;;5067320;28;20217;-84
2023/03/05 12:53:54;;;;;;;12.53;6.73;;;;;;;;;;5054583;28;20199;-83
2023/03/05 12:56:23;;;;;;;14.30;7.33;;;;;;;;;;5043606;28;20193;-83
2023/03/05 12:58:51;;;;;;;12.83;8.77;;;;;;;;;;5048677;28;20243;-83
2023/03/05 13:01:31;;;;;;;10.43;6.73;;;;;;;;;;5039519;28;20682;-83
2023/03/05 13:04:00;;;;;;;10.13;6.73;;;;;;;;;;5054618;28;20209;-84
2023/03/05 13:06:28;;;;;;;8.93;6.30;;;;;;;;;;5056626;28;20228;-84
2023/03/05 13:09:15;;;;;;;11.57;6.93;;;;;;;;;;5049962;28;20235;-84
2023/03/05 13:11:42;;;;;;;11.37;6.63;;;;;;;;;;5034742;28;20187;-84
2023/03/05 13:14:29;;;;;;;14.20;7.60;;;;;;;;;;5059861;28;20171;-84
2023/03/05 13:16:55;;;;;;;16.27;8.47;;;;;;;;;;5035466;28;20189;-83
2023/03/05 13:19:21;;;;;;;11.33;6.87;;;;;;;;;;5060587;28;20211;-84
2023/03/05 13:21:57;;;;;;;10.43;5.83;;;;;;;;;;5038550;28;20192;-84
2023/03/05 13:24:24;;;;;;;11.20;6.97;;;;;;;;;;5058279;28;20675;-83
2023/03/05 13:26:51;;;;;;;13.43;6.50;;;;;;;;;;5064966;28;20192;-84
2023/03/05 13:29:19;;;;;;;11.50;5.73;;;;;;;;;;5065794;28;20180;-84
2023/03/05 13:31:45;;;;;;;10.00;6.53;;;;;;;;;;5065451;28;20545;-84
2023/03/05 13:34:16;;;;;;;11.13;6.07;;;;;;;;;;5048502;28;20229;-84
2023/03/05 13:36:47;;;;;;;11.20;6.53;;;;;;;;;;5049829;28;20306;-83
2023/03/05 13:39:21;;;;;;;10.43;5.33;;;;;;;;;;5048830;28;20189;-84
2023/03/05 13:42:19;;;;;;;11.83;5.20;;;;;;;;;;5056378;28;20232;-84
2023/03/05 13:44:58;;;;;;;16.10;7.00;;;;;;;;;;5006878;28;20210;-84
2023/03/05 13:47:27;;;;;;;9.90;6.03;;;;;;;;;;5021860;28;20190;-84
2023/03/05 13:49:58;;;;;;;10.63;5.60;;;;;;;;;;5014037;28;20185;-83
2023/03/05 13:52:25;;;;;;;11.13;6.23;;;;;;;;;;5011792;28;20190;-83
2023/03/05 13:54:53;;;;;;;11.17;6.50;;;;;;;;;;5022246;28;20296;-82
2023/03/05 13:57:32;;;;;;;9.20;5.77;;;;;;;;;;5025736;28;20197;-83
2023/03/05 13:59:59;;;;;;;19.83;11.83;;;;;;;;;;5009436;28;20269;-84
2023/03/05 14:02:26;;;;;;;15.37;10.07;;;;;;;;;;5010632;28;20355;-84
2023/03/05 14:04:52;;;;;;;14.83;7.27;;;;;;;;;;5009296;28;20182;-83
2023/03/05 14:07:27;;;;;;;10.53;5.93;;;;;;;;;;5008463;28;20208;-84
2023/03/05 14:09:55;;;;;;;15.00;7.30;;;;;;;;;;5011130;28;20189;-84
2023/03/05 14:12:30;;;;;;;14.27;6.67;;;;;;;;;;5005723;28;20547;-83
2023/03/05 14:14:57;;;;;;;13.57;6.40;;;;;;;;;;5011516;28;20273;-84
2023/03/05 14:17:30;;;;;;;13.77;7.20;;;;;;;;;;5011460;28;20199;-84
2023/03/05 14:20:17;;;;;;;9.43;6.70;;;;;;;;;;5018572;28;20649;-83
2023/03/05 14:22:57;;;;;;;11.83;6.80;;;;;;;;;;5072334;28;20201;-84
2023/03/05 14:25:32;;;;;;;12.63;7.87;;;;;;;;;;5054005;28;20191;-82
2023/03/05 14:27:58;;;;;;;14.93;7.60;;;;;;;;;;5051502;28;20231;-83
2023/03/05 14:30:24;;;;;;;14.90;7.53;;;;;;;;;;5079183;28;20181;-83
2023/03/05 14:32:52;;;;;;;13.53;7.70;;;;;;;;;;5052425;28;20192;-83
2023/03/05 14:35:20;;;;;;;13.40;7.80;;;;;;;;;;5057763;28;20354;-83
2023/03/05 14:51:44;;;;;;;11.77;7.77;;;;;;;;;;3183982;22;20624;-87
2023/03/05 14:54:24;;;;;;;12.10;7.60;;;;;;;;;;5084813;28;20171;-87
2023/03/05 14:56:50;;;;;;;11.07;8.37;;;;;;;;;;5095798;27;20181;-86
2023/03/05 14:59:17;;;;;;;16.97;8.90;;;;;;;;;;5097230;28;20579;-87